sensor_id;sensor_type;location;lat;lon;timestamp;temperature;humidity
25050;DHT22;13046;49.814;9.918;2023-03-23T00:16:39;15.10;99.90
25050;DHT22;13046;49.814;9.918;2023-03-23T00:19:11;14.60;99.90
25050;DHT22;13046;49.814;9.918;2023-03-23T00:21:41;14.60;99.90
25050;DHT22;13046;49.814;9.918;2023-03-23T00:24:12;14.50;99.90
25050;DHT22;13046;49.814;9.918;2023-03-23T00:26:42;14.50;99.90
25050;DHT22;13046;49.814;9.918;2023-03-23T00:29:14;14.50;99.90
25050;DHT22;13046;49.814;9.918;2023-03-23T00:31:41;14.40;99.90
25050;DHT22;13046;49.814;9.918;2023-03-23T00:34:17;14.50;99.90
25050;DHT22;13046;49.814;9.918;2023-03-23T00:36:50;14.50;99.90
25050;DHT22;13046;49.814;9.918;2023-03-23T00:39:17;14.50;99.90
25050;DHT22;13046;49.814;9.918;2023-03-23T00:41:43;14.50;99.90
25050;DHT22;13046;49.814;9.918;2023-03-23T00:44:10;14.50;99.90
25050;DHT22;13046;49.814;9.918;2023-03-23T00:46:45;14.50;99.90
25050;DHT22;13046;49.814;9.918;2023-03-23T00:49:16;14.50;99.90
25050;DHT22;13046;49.814;9.918;2023-03-23T00:51:43;14.50;99.90
25050;DHT22;13046;49.814;9.918;2023-03-23T00:54:10;14.40;99.90
25050;DHT22;13046;49.814;9.918;2023-03-23T00:56:36;14.50;99.90
25050;DHT22;13046;49.814;9.918;2023-03-23T00:59:02;14.40;99.90
25050;DHT22;13046;49.814;9.918;2023-03-23T01:01:29;14.40;99.90
25050;DHT22;13046;49.814;9.918;2023-03-23T01:03:58;14.40;99.90
25050;DHT22;13046;49.814;9.918;2023-03-23T01:06:30;14.40;99.90
25050;DHT22;13046;49.814;9.918;2023-03-23T01:08:57;14.40;99.90
25050;DHT22;13046;49.814;9.918;2023-03-23T01:11:24;14.40;99.90
25050;DHT22;13046;49.814;9.918;2023-03-23T01:13:51;14.40;99.90
25050;DHT22;13046;49.814;9.918;2023-03-23T01:16:19;14.40;99.90
25050;DHT22;13046;49.814;9.918;2023-03-23T01:18:45;14.40;99.90
25050;DHT22;13046;49.814;9.918;2023-03-23T01:21:13;14.40;99.90
25050;DHT22;13046;49.814;9.918;2023-03-23T01:23:39;14.40;99.90
25050;DHT22;13046;49.814;9.918;2023-03-23T01:26:14;14.40;99.90
25050;DHT22;13046;49.814;9.918;2023-03-23T01:28:41;14.40;99.90
25050;DHT22;13046;49.814;9.918;2023-03-23T01:31:09;14.40;99.90
25050;DHT22;13046;49.814;9.918;2023-03-23T01:33:35;14.40;99.90
25050;DHT22;13046;49.814;9.918;2023-03-23T01:36:07;14.40;99.90
25050;DHT22;13046;49.814;9.918;2023-03-23T01:38:34;14.40;99.90
25050;DHT22;13046;49.814;9.918;2023-03-23T01:41:01;14.30;99.90
25050;DHT22;13046;49.814;9.918;2023-03-23T01:43:27;14.30;99.90
25050;DHT22;13046;49.814;9.918;2023-03-23T01:45:53;14.30;99.90
25050;DHT22;13046;49.814;9.918;2023-03-23T01:48:31;14.40;99.90
25050;DHT22;13046;49.814;9.918;2023-03-23T01:51:12;14.40;99.90
25050;DHT22;13046;49.814;9.918;2023-03-23T01:53:49;14.30;99.90
25050;DHT22;13046;49.814;9.918;2023-03-23T01:56:20;14.30;99.90
25050;DHT22;13046;49.814;9.918;2023-03-23T01:58:51;14.30;99.90
25050;DHT22;13046;49.814;9.918;2023-03-23T02:01:18;14.30;99.90
25050;DHT22;13046;49.814;9.918;2023-03-23T02:03:45;14.30;99.90
25050;DHT22;13046;49.814;9.918;2023-03-23T02:06:12;14.20;99.90
25050;DHT22;13046;49.814;9.918;2023-03-23T02:08:57;14.20;99.90
25050;DHT22;13046;49.814;9.918;2023-03-23T02:11:23;14.20;99.90
25050;DHT22;13046;49.814;9.918;2023-03-23T02:13:50;14.20;99.90
25050;DHT22;13046;49.814;9.918;2023-03-23T02:22:10;14.20;99.90
25050;DHT22;13046;49.814;9.918;2023-03-23T02:38:30;14.20;99.90
25050;DHT22;13046;49.814;9.918;2023-03-23T02:41:00;14.20;99.90
25050;DHT22;13046;49.814;9.918;2023-03-23T02:43:28;14.20;99.90
25050;DHT22;13046;49.814;9.918;2023-03-23T02:45:56;14.20;99.90
25050;DHT22;13046;49.814;9.918;2023-03-23T02:48:27;14.10;99.90
25050;DHT22;13046;49.814;9.918;2023-03-23T02:50:54;14.10;99.90
25050;DHT22;13046;49.814;9.918;2023-03-23T02:53:22;14.10;99.90
25050;DHT22;13046;49.814;9.918;2023-03-23T02:55:52;14.10;99.90
25050;DHT22;13046;49.814;9.918;2023-03-23T02:58:21;14.10;99.90
25050;DHT22;13046;49.814;9.918;2023-03-23T03:00:51;14.00;99.90
25050;DHT22;13046;49.814;9.918;2023-03-23T03:03:30;14.00;99.90
25050;DHT22;13046;49.814;9.918;2023-03-23T03:06:03;14.00;99.90
25050;DHT22;13046;49.814;9.918;2023-03-23T03:09:03;13.90;99.90
25050;DHT22;13046;49.814;9.918;2023-03-23T03:11:34;13.90;99.90
25050;DHT22;13046;49.814;9.918;2023-03-23T03:14:35;13.90;99.90
25050;DHT22;13046;49.814;9.918;2023-03-23T03:17:24;13.80;99.90
25050;DHT22;13046;49.814;9.918;2023-03-23T03:19:59;13.80;99.90
25050;DHT22;13046;49.814;9.918;2023-03-23T03:22:33;13.80;99.90
25050;DHT22;13046;49.814;9.918;2023-03-23T03:25:03;13.80;99.90
25050;DHT22;13046;49.814;9.918;2023-03-23T03:27:30;13.80;99.90
25050;DHT22;13046;49.814;9.918;2023-03-23T03:30:09;13.80;99.90
25050;DHT22;13046;49.814;9.918;2023-03-23T03:32:44;13.80;99.90
25050;DHT22;13046;49.814;9.918;2023-03-23T03:35:12;13.80;99.90
25050;DHT22;13046;49.814;9.918;2023-03-23T03:37:39;13.70;99.90
25050;DHT22;13046;49.814;9.918;2023-03-23T03:40:08;13.70;99.90
25050;DHT22;13046;49.814;9.918;2023-03-23T03:42:41;13.60;99.90
25050;DHT22;13046;49.814;9.918;2023-03-23T03:45:10;13.60;99.90
25050;DHT22;13046;49.814;9.918;2023-03-23T03:47:36;13.50;99.90
25050;DHT22;13046;49.814;9.918;2023-03-23T03:50:02;13.50;99.90
25050;DHT22;13046;49.814;9.918;2023-03-23T03:52:28;13.50;99.90
25050;DHT22;13046;49.814;9.918;2023-03-23T03:54:54;13.50;99.90
25050;DHT22;13046;49.814;9.918;2023-03-23T03:57:21;13.50;99.90
25050;DHT22;13046;49.814;9.918;2023-03-23T04:00:17;13.40;99.90
25050;DHT22;13046;49.814;9.918;2023-03-23T04:02:47;13.40;99.90
25050;DHT22;13046;49.814;9.918;2023-03-23T04:05:17;13.30;99.90
25050;DHT22;13046;49.814;9.918;2023-03-23T04:07:46;13.30;99.90
25050;DHT22;13046;49.814;9.918;2023-03-23T07:36:59;13.30;99.90
25050;DHT22;13046;49.814;9.918;2023-03-23T07:39:27;13.80;99.90
25050;DHT22;13046;49.814;9.918;2023-03-23T07:41:55;13.70;99.90
25050;DHT22;13046;49.814;9.918;2023-03-23T07:44:33;13.70;99.90
25050;DHT22;13046;49.814;9.918;2023-03-23T07:47:05;13.80;99.90
25050;DHT22;13046;49.814;9.918;2023-03-23T07:49:32;13.80;99.90
25050;DHT22;13046;49.814;9.918;2023-03-23T07:52:18;13.90;99.90
25050;DHT22;13046;49.814;9.918;2023-03-23T07:54:44;13.90;99.90
25050;DHT22;13046;49.814;9.918;2023-03-23T07:57:29;13.90;99.90
25050;DHT22;13046;49.814;9.918;2023-03-23T07:59:57;14.00;99.90
25050;DHT22;13046;49.814;9.918;2023-03-23T08:02:24;14.00;99.90
25050;DHT22;13046;49.814;9.918;2023-03-23T08:05:08;14.00;99.90
25050;DHT22;13046;49.814;9.918;2023-03-23T08:07:54;14.00;99.90
25050;DHT22;13046;49.814;9.918;2023-03-23T08:10:39;14.00;99.90
25050;DHT22;13046;49.814;9.918;2023-03-23T08:13:22;13.90;99.90
25050;DHT22;13046;49.814;9.918;2023-03-23T08:16:10;13.90;99.90
25050;DHT22;13046;49.814;9.918;2023-03-23T08:18:53;13.80;99.90
25050;DHT22;13046;49.814;9.918;2023-03-23T08:21:35;13.80;99.90
25050;DHT22;13046;49.814;9.918;2023-03-23T08:24:07;13.80;99.90
25050;DHT22;13046;49.814;9.918;2023-03-23T08:26:45;13.70;99.90
25050;DHT22;13046;49.814;9.918;2023-03-23T08:29:31;13.70;99.90
25050;DHT22;13046;49.814;9.918;2023-03-23T08:32:12;13.60;99.90
25050;DHT22;13046;49.814;9.918;2023-03-23T08:34:58;13.60;99.90
25050;DHT22;13046;49.814;9.918;2023-03-23T08:37:43;13.50;99.90
25050;DHT22;13046;49.814;9.918;2023-03-23T08:40:27;13.60;99.90
25050;DHT22;13046;49.814;9.918;2023-03-23T08:43:12;13.50;99.90
25050;DHT22;13046;49.814;9.918;2023-03-23T08:46:13;13.50;99.90
25050;DHT22;13046;49.814;9.918;2023-03-23T08:48:57;13.50;99.90
25050;DHT22;13046;49.814;9.918;2023-03-23T08:51:23;13.50;99.90
25050;DHT22;13046;49.814;9.918;2023-03-23T08:54:18;13.60;99.90
25050;DHT22;13046;49.814;9.918;2023-03-23T08:56:50;13.60;99.90
25050;DHT22;13046;49.814;9.918;2023-03-23T08:59:42;13.70;99.90
25050;DHT22;13046;49.814;9.918;2023-03-23T09:02:17;13.70;99.90
25050;DHT22;13046;49.814;9.918;2023-03-23T09:04:50;13.80;99.90
25050;DHT22;13046;49.814;9.918;2023-03-23T09:07:45;13.80;99.90
25050;DHT22;13046;49.814;9.918;2023-03-23T09:10:12;13.90;99.90
25050;DHT22;13046;49.814;9.918;2023-03-23T09:12:41;13.90;99.90
25050;DHT22;13046;49.814;9.918;2023-03-23T09:15:09;13.90;99.90
25050;DHT22;13046;49.814;9.918;2023-03-23T09:17:36;13.80;99.90
25050;DHT22;13046;49.814;9.918;2023-03-23T09:20:04;13.90;99.90
25050;DHT22;13046;49.814;9.918;2023-03-23T09:22:38;13.90;99.90
25050;DHT22;13046;49.814;9.918;2023-03-23T09:25:05;13.90;99.90
25050;DHT22;13046;49.814;9.918;2023-03-23T09:27:31;14.00;99.90
25050;DHT22;13046;49.814;9.918;2023-03-23T09:29:57;14.00;99.90
25050;DHT22;13046;49.814;9.918;2023-03-23T09:32:24;14.10;99.90
25050;DHT22;13046;49.814;9.918;2023-03-23T09:34:49;14.20;99.90
25050;DHT22;13046;49.814;9.918;2023-03-23T09:37:16;14.20;99.90
25050;DHT22;13046;49.814;9.918;2023-03-23T09:39:42;14.20;99.90
25050;DHT22;13046;49.814;9.918;2023-03-23T09:45:25;14.20;99.90
25050;DHT22;13046;49.814;9.918;2023-03-23T09:51:01;14.20;99.90
25050;DHT22;13046;49.814;9.918;2023-03-23T09:53:35;14.20;99.90
25050;DHT22;13046;49.814;9.918;2023-03-23T09:56:02;14.20;99.90
25050;DHT22;13046;49.814;9.918;2023-03-23T09:58:37;14.20;99.90
25050;DHT22;13046;49.814;9.918;2023-03-23T10:01:19;14.10;99.90
25050;DHT22;13046;49.814;9.918;2023-03-23T10:03:46;14.10;99.90
25050;DHT22;13046;49.814;9.918;2023-03-23T10:06:15;14.10;99.90
25050;DHT22;13046;49.814;9.918;2023-03-23T10:08:54;14.10;99.90
25050;DHT22;13046;49.814;9.918;2023-03-23T10:14:31;14.20;99.90
25050;DHT22;13046;49.814;9.918;2023-03-23T10:22:35;14.30;99.90
25050;DHT22;13046;49.814;9.918;2023-03-23T10:27:52;14.30;99.90
25050;DHT22;13046;49.814;9.918;2023-03-23T10:35:57;14.40;99.90
25050;DHT22;13046;49.814;9.918;2023-03-23T10:38:41;14.60;99.90
25050;DHT22;13046;49.814;9.918;2023-03-23T10:41:17;14.70;99.90
25050;DHT22;13046;49.814;9.918;2023-03-23T10:43:44;14.80;99.90
25050;DHT22;13046;49.814;9.918;2023-03-23T10:48:45;15.00;99.90
25050;DHT22;13046;49.814;9.918;2023-03-23T10:51:17;15.20;99.90
25050;DHT22;13046;49.814;9.918;2023-03-23T10:53:49;15.20;99.90
25050;DHT22;13046;49.814;9.918;2023-03-23T10:56:35;15.30;99.90
25050;DHT22;13046;49.814;9.918;2023-03-23T10:59:30;15.60;99.90
25050;DHT22;13046;49.814;9.918;2023-03-23T11:02:00;15.80;99.90
25050;DHT22;13046;49.814;9.918;2023-03-23T11:04:29;16.00;99.90
25050;DHT22;13046;49.814;9.918;2023-03-23T11:07:00;15.90;99.90
25050;DHT22;13046;49.814;9.918;2023-03-23T11:09:39;16.10;99.90
25050;DHT22;13046;49.814;9.918;2023-03-23T11:12:16;15.90;99.90
25050;DHT22;13046;49.814;9.918;2023-03-23T11:17:25;16.00;99.90
25050;DHT22;13046;49.814;9.918;2023-03-23T11:19:52;16.10;99.90
25050;DHT22;13046;49.814;9.918;2023-03-23T11:24:55;15.90;99.90
25050;DHT22;13046;49.814;9.918;2023-03-23T11:27:21;15.80;99.90
25050;DHT22;13046;49.814;9.918;2023-03-23T11:29:54;15.80;99.90
25050;DHT22;13046;49.814;9.918;2023-03-23T11:32:26;15.70;99.90
25050;DHT22;13046;49.814;9.918;2023-03-23T11:35:01;15.70;99.90
25050;DHT22;13046;49.814;9.918;2023-03-23T11:40:24;15.60;99.90
25050;DHT22;13046;49.814;9.918;2023-03-23T11:48:06;15.30;99.90
25050;DHT22;13046;49.814;9.918;2023-03-23T11:50:52;15.10;99.90
25050;DHT22;13046;49.814;9.918;2023-03-23T11:58:53;15.10;99.90
25050;DHT22;13046;49.814;9.918;2023-03-23T12:14:50;15.20;99.90
25050;DHT22;13046;49.814;9.918;2023-03-23T12:17:37;15.20;99.90
25050;DHT22;13046;49.814;9.918;2023-03-23T12:20:23;15.10;99.90
25050;DHT22;13046;49.814;9.918;2023-03-23T12:23:25;14.90;99.90
25050;DHT22;13046;49.814;9.918;2023-03-23T12:28:59;14.70;99.90
25050;DHT22;13046;49.814;9.918;2023-03-23T12:31:56;14.60;99.90
25050;DHT22;13046;49.814;9.918;2023-03-23T12:34:41;14.60;99.90
25050;DHT22;13046;49.814;9.918;2023-03-23T12:37:34;14.70;99.90
25050;DHT22;13046;49.814;9.918;2023-03-23T12:40:19;14.70;99.90
25050;DHT22;13046;49.814;9.918;2023-03-23T12:43:08;14.70;99.90
25050;DHT22;13046;49.814;9.918;2023-03-23T12:48:40;15.30;99.90
25050;DHT22;13046;49.814;9.918;2023-03-23T12:51:32;15.40;99.90
25050;DHT22;13046;49.814;9.918;2023-03-23T12:56:53;15.60;99.90
25050;DHT22;13046;49.814;9.918;2023-03-23T13:02:01;15.60;99.90
25050;DHT22;13046;49.814;9.918;2023-03-23T13:04:55;15.60;99.90
25050;DHT22;13046;49.814;9.918;2023-03-23T13:07:28;15.60;99.90
25050;DHT22;13046;49.814;9.918;2023-03-23T13:10:44;15.50;99.90
25050;DHT22;13046;49.814;9.918;2023-03-23T13:12:52;15.50;99.90
25050;DHT22;13046;49.814;9.918;2023-03-23T13:17:58;15.50;99.90
25050;DHT22;13046;49.814;9.918;2023-03-23T13:25:59;16.10;99.90
25050;DHT22;13046;49.814;9.918;2023-03-23T13:28:27;16.30;99.90
25050;DHT22;13046;49.814;9.918;2023-03-23T13:33:36;16.50;99.90
25050;DHT22;13046;49.814;9.918;2023-03-23T13:36:05;16.30;99.90
25050;DHT22;13046;49.814;9.918;2023-03-23T13:38:32;16.40;99.90
25050;DHT22;13046;49.814;9.918;2023-03-23T13:41:05;16.40;99.90
25050;DHT22;13046;49.814;9.918;2023-03-23T13:43:34;16.50;99.90
25050;DHT22;13046;49.814;9.918;2023-03-23T13:46:27;16.30;99.90
25050;DHT22;13046;49.814;9.918;2023-03-23T13:51:51;16.70;99.90
25050;DHT22;13046;49.814;9.918;2023-03-23T13:57:18;16.40;99.90
25050;DHT22;13046;49.814;9.918;2023-03-23T13:59:54;16.30;99.90
25050;DHT22;13046;49.814;9.918;2023-03-23T14:02:33;16.20;99.90
25050;DHT22;13046;49.814;9.918;2023-03-23T14:07:54;16.10;99.90
25050;DHT22;13046;49.814;9.918;2023-03-23T14:10:21;16.00;99.90
25050;DHT22;13046;49.814;9.918;2023-03-23T14:12:50;15.90;99.90
25050;DHT22;13046;49.814;9.918;2023-03-23T14:15:18;15.70;99.90
25050;DHT22;13046;49.814;9.918;2023-03-23T14:17:44;15.70;99.90
25050;DHT22;13046;49.814;9.918;2023-03-23T14:20:36;15.70;99.90
25050;DHT22;13046;49.814;9.918;2023-03-23T14:23:02;15.70;99.90
25050;DHT22;13046;49.814;9.918;2023-03-23T14:25:30;15.70;99.90
25050;DHT22;13046;49.814;9.918;2023-03-23T14:27:58;15.80;99.90
25050;DHT22;13046;49.814;9.918;2023-03-23T14:30:27;15.80;99.90
25050;DHT22;13046;49.814;9.918;2023-03-23T14:33:04;15.70;99.90
25050;DHT22;13046;49.814;9.918;2023-03-23T14:35:33;15.70;99.90
25050;DHT22;13046;49.814;9.918;2023-03-23T14:37:59;15.70;99.90
25050;DHT22;13046;49.814;9.918;2023-03-23T14:40:27;15.70;99.90
25050;DHT22;13046;49.814;9.918;2023-03-23T14:42:53;15.60;99.90
25050;DHT22;13046;49.814;9.918;2023-03-23T14:45:21;15.60;99.90
25050;DHT22;13046;49.814;9.918;2023-03-23T14:48:03;15.60;99.90
25050;DHT22;13046;49.814;9.918;2023-03-23T14:50:40;15.50;99.90
25050;DHT22;13046;49.814;9.918;2023-03-23T14:53:22;15.60;99.90
25050;DHT22;13046;49.814;9.918;2023-03-23T14:55:50;15.70;99.90
25050;DHT22;13046;49.814;9.918;2023-03-23T14:58:18;15.70;99.90
25050;DHT22;13046;49.814;9.918;2023-03-23T15:00:48;15.60;99.90
25050;DHT22;13046;49.814;9.918;2023-03-23T15:03:17;15.60;99.90
25050;DHT22;13046;49.814;9.918;2023-03-23T15:05:47;15.50;99.90
25050;DHT22;13046;49.814;9.918;2023-03-23T15:08:20;15.50;99.90
25050;DHT22;13046;49.814;9.918;2023-03-23T15:13:37;15.30;99.90
25050;DHT22;13046;49.814;9.918;2023-03-23T15:16:14;15.30;99.90
25050;DHT22;13046;49.814;9.918;2023-03-23T15:18:49;15.30;99.90
25050;DHT22;13046;49.814;9.918;2023-03-23T15:21:28;15.10;99.90
25050;DHT22;13046;49.814;9.918;2023-03-23T15:23:54;15.00;99.90
25050;DHT22;13046;49.814;9.918;2023-03-23T15:26:41;15.00;99.90
25050;DHT22;13046;49.814;9.918;2023-03-23T15:31:40;14.80;99.90
25050;DHT22;13046;49.814;9.918;2023-03-23T15:34:10;14.70;99.90
25050;DHT22;13046;49.814;9.918;2023-03-23T15:39:03;14.70;99.90
25050;DHT22;13046;49.814;9.918;2023-03-23T15:41:31;14.60;99.90
25050;DHT22;13046;49.814;9.918;2023-03-23T15:44:11;14.60;99.90
25050;DHT22;13046;49.814;9.918;2023-03-23T15:46:51;14.60;99.90
25050;DHT22;13046;49.814;9.918;2023-03-23T15:49:17;14.50;99.90
25050;DHT22;13046;49.814;9.918;2023-03-23T15:51:43;14.50;99.90
25050;DHT22;13046;49.814;9.918;2023-03-23T15:54:14;14.50;99.90
25050;DHT22;13046;49.814;9.918;2023-03-23T15:56:40;14.40;99.90
25050;DHT22;13046;49.814;9.918;2023-03-23T15:59:07;14.40;99.90
25050;DHT22;13046;49.814;9.918;2023-03-23T16:01:33;14.50;99.90
25050;DHT22;13046;49.814;9.918;2023-03-23T16:04:11;14.60;99.90
25050;DHT22;13046;49.814;9.918;2023-03-23T16:06:38;14.70;99.90
25050;DHT22;13046;49.814;9.918;2023-03-23T16:09:05;14.80;99.90
25050;DHT22;13046;49.814;9.918;2023-03-23T16:11:32;14.70;99.90
25050;DHT22;13046;49.814;9.918;2023-03-23T16:13:58;14.70;99.90
25050;DHT22;13046;49.814;9.918;2023-03-23T16:16:33;14.70;99.90
25050;DHT22;13046;49.814;9.918;2023-03-23T16:18:59;14.70;99.90
25050;DHT22;13046;49.814;9.918;2023-03-23T16:21:24;14.70;99.90
25050;DHT22;13046;49.814;9.918;2023-03-23T16:23:50;14.70;99.90
25050;DHT22;13046;49.814;9.918;2023-03-23T16:26:16;14.80;99.90
25050;DHT22;13046;49.814;9.918;2023-03-23T16:28:42;14.80;99.90
25050;DHT22;13046;49.814;9.918;2023-03-23T16:31:08;14.70;99.90
25050;DHT22;13046;49.814;9.918;2023-03-23T16:33:34;14.80;99.90
25050;DHT22;13046;49.814;9.918;2023-03-23T16:36:00;14.80;99.90
25050;DHT22;13046;49.814;9.918;2023-03-23T16:38:26;14.80;99.90
25050;DHT22;13046;49.814;9.918;2023-03-23T16:40:52;14.70;99.90
25050;DHT22;13046;49.814;9.918;2023-03-23T16:43:18;14.70;99.90
25050;DHT22;13046;49.814;9.918;2023-03-23T16:45:44;14.70;99.90
25050;DHT22;13046;49.814;9.918;2023-03-23T16:48:12;14.70;99.90
25050;DHT22;13046;49.814;9.918;2023-03-23T16:50:39;14.70;99.90
25050;DHT22;13046;49.814;9.918;2023-03-23T16:53:06;14.70;99.90
25050;DHT22;13046;49.814;9.918;2023-03-23T16:55:33;14.70;99.90
25050;DHT22;13046;49.814;9.918;2023-03-23T16:57:59;14.70;99.90
25050;DHT22;13046;49.814;9.918;2023-03-23T17:00:25;14.60;99.90
25050;DHT22;13046;49.814;9.918;2023-03-23T17:02:53;14.60;99.90
25050;DHT22;13046;49.814;9.918;2023-03-23T17:05:26;14.60;99.90
25050;DHT22;13046;49.814;9.918;2023-03-23T17:07:53;14.60;99.90
25050;DHT22;13046;49.814;9.918;2023-03-23T17:10:20;14.60;99.90
25050;DHT22;13046;49.814;9.918;2023-03-23T17:12:46;14.50;99.90
25050;DHT22;13046;49.814;9.918;2023-03-23T17:15:12;14.50;99.90
25050;DHT22;13046;49.814;9.918;2023-03-23T17:17:38;14.50;99.90
25050;DHT22;13046;49.814;9.918;2023-03-23T17:20:04;14.50;99.90
25050;DHT22;13046;49.814;9.918;2023-03-23T17:22:30;14.50;99.90
25050;DHT22;13046;49.814;9.918;2023-03-23T17:24:56;14.50;99.90
25050;DHT22;13046;49.814;9.918;2023-03-23T17:27:23;14.50;99.90
25050;DHT22;13046;49.814;9.918;2023-03-23T17:29:49;14.40;99.90
25050;DHT22;13046;49.814;9.918;2023-03-23T17:32:15;14.40;99.90
25050;DHT22;13046;49.814;9.918;2023-03-23T17:34:41;14.40;99.90
25050;DHT22;13046;49.814;9.918;2023-03-23T17:37:07;14.40;99.90
25050;DHT22;13046;49.814;9.918;2023-03-23T17:39:33;14.40;99.90
25050;DHT22;13046;49.814;9.918;2023-03-23T17:42:00;14.30;99.90
25050;DHT22;13046;49.814;9.918;2023-03-23T17:44:26;14.30;99.90
25050;DHT22;13046;49.814;9.918;2023-03-23T17:46:52;14.30;99.90
25050;DHT22;13046;49.814;9.918;2023-03-23T17:49:17;14.30;99.90
25050;DHT22;13046;49.814;9.918;2023-03-23T17:51:43;14.30;99.90
25050;DHT22;13046;49.814;9.918;2023-03-23T17:54:09;14.30;99.90
25050;DHT22;13046;49.814;9.918;2023-03-23T17:56:35;14.30;99.90
25050;DHT22;13046;49.814;9.918;2023-03-23T17:59:00;14.30;99.90
25050;DHT22;13046;49.814;9.918;2023-03-23T18:01:26;14.30;99.90
25050;DHT22;13046;49.814;9.918;2023-03-23T18:03:52;14.30;99.90
25050;DHT22;13046;49.814;9.918;2023-03-23T18:06:18;14.30;99.90
25050;DHT22;13046;49.814;9.918;2023-03-23T18:08:43;14.30;99.90
25050;DHT22;13046;49.814;9.918;2023-03-23T18:11:10;14.30;99.90
25050;DHT22;13046;49.814;9.918;2023-03-23T18:13:36;14.20;99.90
25050;DHT22;13046;49.814;9.918;2023-03-23T18:16:02;14.20;99.90
25050;DHT22;13046;49.814;9.918;2023-03-23T18:18:29;14.20;99.90
25050;DHT22;13046;49.814;9.918;2023-03-23T18:21:03;14.20;99.90
25050;DHT22;13046;49.814;9.918;2023-03-23T18:23:29;14.20;99.90
25050;DHT22;13046;49.814;9.918;2023-03-23T18:26:10;14.20;99.90
25050;DHT22;13046;49.814;9.918;2023-03-23T18:28:36;14.10;99.90
25050;DHT22;13046;49.814;9.918;2023-03-23T18:31:08;14.10;99.90
25050;DHT22;13046;49.814;9.918;2023-03-23T18:33:35;14.10;99.90
25050;DHT22;13046;49.814;9.918;2023-03-23T18:36:03;14.10;99.90
25050;DHT22;13046;49.814;9.918;2023-03-23T18:38:29;14.00;99.90
25050;DHT22;13046;49.814;9.918;2023-03-23T18:40:55;14.00;99.90
25050;DHT22;13046;49.814;9.918;2023-03-23T18:43:22;14.00;99.90
25050;DHT22;13046;49.814;9.918;2023-03-23T18:45:52;13.90;99.90
25050;DHT22;13046;49.814;9.918;2023-03-23T18:48:19;13.80;99.90
25050;DHT22;13046;49.814;9.918;2023-03-23T18:50:49;13.70;99.90
25050;DHT22;13046;49.814;9.918;2023-03-23T18:53:15;13.70;99.90
25050;DHT22;13046;49.814;9.918;2023-03-23T18:55:42;13.70;99.90
25050;DHT22;13046;49.814;9.918;2023-03-23T18:58:09;13.70;99.90
25050;DHT22;13046;49.814;9.918;2023-03-23T19:00:35;13.60;99.90
25050;DHT22;13046;49.814;9.918;2023-03-23T19:03:02;13.60;99.90
25050;DHT22;13046;49.814;9.918;2023-03-23T19:05:29;13.60;99.90
25050;DHT22;13046;49.814;9.918;2023-03-23T19:07:55;13.50;99.90
25050;DHT22;13046;49.814;9.918;2023-03-23T19:10:21;13.40;99.90
25050;DHT22;13046;49.814;9.918;2023-03-23T19:12:48;13.40;99.90
25050;DHT22;13046;49.814;9.918;2023-03-23T19:15:14;13.40;99.90
25050;DHT22;13046;49.814;9.918;2023-03-23T19:17:41;13.40;99.90
25050;DHT22;13046;49.814;9.918;2023-03-23T19:20:07;13.40;99.90
25050;DHT22;13046;49.814;9.918;2023-03-23T19:22:35;13.30;99.90
25050;DHT22;13046;49.814;9.918;2023-03-23T19:25:02;13.30;99.90
25050;DHT22;13046;49.814;9.918;2023-03-23T19:27:28;13.30;99.90
25050;DHT22;13046;49.814;9.918;2023-03-23T19:29:54;13.30;99.90
25050;DHT22;13046;49.814;9.918;2023-03-23T19:32:19;13.20;99.90
25050;DHT22;13046;49.814;9.918;2023-03-23T19:34:45;13.20;99.90
25050;DHT22;13046;49.814;9.918;2023-03-23T19:37:11;13.10;99.90
25050;DHT22;13046;49.814;9.918;2023-03-23T19:39:37;13.10;99.90
25050;DHT22;13046;49.814;9.918;2023-03-23T19:42:04;13.20;99.90
25050;DHT22;13046;49.814;9.918;2023-03-23T19:44:31;13.20;99.90
25050;DHT22;13046;49.814;9.918;2023-03-23T19:46:57;13.20;99.90
25050;DHT22;13046;49.814;9.918;2023-03-23T19:49:23;13.20;99.90
25050;DHT22;13046;49.814;9.918;2023-03-23T19:51:49;13.10;99.90
25050;DHT22;13046;49.814;9.918;2023-03-23T19:54:17;13.00;99.90
25050;DHT22;13046;49.814;9.918;2023-03-23T19:56:43;13.00;99.90
25050;DHT22;13046;49.814;9.918;2023-03-23T19:59:13;13.00;99.90
25050;DHT22;13046;49.814;9.918;2023-03-23T20:01:41;12.90;99.90
25050;DHT22;13046;49.814;9.918;2023-03-23T20:04:08;12.90;99.90
25050;DHT22;13046;49.814;9.918;2023-03-23T20:06:34;12.80;99.90
25050;DHT22;13046;49.814;9.918;2023-03-23T20:09:00;12.80;99.90
25050;DHT22;13046;49.814;9.918;2023-03-23T20:11:27;12.80;99.90
25050;DHT22;13046;49.814;9.918;2023-03-23T20:13:53;12.90;99.90
25050;DHT22;13046;49.814;9.918;2023-03-23T20:16:19;12.90;99.90
25050;DHT22;13046;49.814;9.918;2023-03-23T20:18:45;12.90;99.90
25050;DHT22;13046;49.814;9.918;2023-03-23T20:21:13;12.90;99.90
25050;DHT22;13046;49.814;9.918;2023-03-23T20:23:41;12.80;99.90
25050;DHT22;13046;49.814;9.918;2023-03-23T20:26:29;12.80;99.90
25050;DHT22;13046;49.814;9.918;2023-03-23T20:28:55;12.80;99.90
25050;DHT22;13046;49.814;9.918;2023-03-23T20:31:23;12.80;99.90
25050;DHT22;13046;49.814;9.918;2023-03-23T20:33:53;12.80;99.90
25050;DHT22;13046;49.814;9.918;2023-03-23T20:36:20;12.80;99.90
25050;DHT22;13046;49.814;9.918;2023-03-23T20:38:46;12.80;99.90
25050;DHT22;13046;49.814;9.918;2023-03-23T20:41:13;12.80;99.90
25050;DHT22;13046;49.814;9.918;2023-03-23T20:43:41;12.80;99.90
25050;DHT22;13046;49.814;9.918;2023-03-23T20:46:09;12.80;99.90
25050;DHT22;13046;49.814;9.918;2023-03-23T20:48:36;12.80;99.90
25050;DHT22;13046;49.814;9.918;2023-03-23T20:51:05;12.80;99.90
25050;DHT22;13046;49.814;9.918;2023-03-23T20:53:33;12.80;99.90
25050;DHT22;13046;49.814;9.918;2023-03-23T20:56:00;12.80;99.90
25050;DHT22;13046;49.814;9.918;2023-03-23T20:58:28;12.70;99.90
25050;DHT22;13046;49.814;9.918;2023-03-23T21:00:56;12.80;99.90
25050;DHT22;13046;49.814;9.918;2023-03-23T21:03:23;12.80;99.90
25050;DHT22;13046;49.814;9.918;2023-03-23T21:05:49;12.80;99.90
25050;DHT22;13046;49.814;9.918;2023-03-23T21:08:16;12.80;99.90
25050;DHT22;13046;49.814;9.918;2023-03-23T21:10:46;12.80;99.90
25050;DHT22;13046;49.814;9.918;2023-03-23T21:13:12;12.90;99.90
25050;DHT22;13046;49.814;9.918;2023-03-23T21:15:38;12.90;99.90
25050;DHT22;13046;49.814;9.918;2023-03-23T21:18:05;12.90;99.90
25050;DHT22;13046;49.814;9.918;2023-03-23T21:20:31;12.90;99.90
25050;DHT22;13046;49.814;9.918;2023-03-23T21:22:57;12.90;99.90
25050;DHT22;13046;49.814;9.918;2023-03-23T21:25:23;12.90;99.90
25050;DHT22;13046;49.814;9.918;2023-03-23T21:27:50;12.90;99.90
25050;DHT22;13046;49.814;9.918;2023-03-23T21:30:17;12.90;99.90
25050;DHT22;13046;49.814;9.918;2023-03-23T21:32:44;12.90;99.90